Shin Puropan Maru — JG5508 — position and weather

sailwx.info

Track history (hours):
 
Tides and Currents Weather Stations Pressure Air Temp Water Temp Dewpoint Dewpoint Depression Visibility Wind Speed Wind Dir Waves Ship Positions

Shin Puropan Maru

Last reported at 2018-Apr-22 04:30 UTC. Time now 2018-Apr-22 04:40 UTC.
Position N 34°29' E 135°11'.

Length 66 m; draft 3.5 m.

Type: Ship (hazmat cat A). MMSI: 431100348.

Date/timePositionNaut miles runAvg speedWind from/ knotsBaromVisibWave heightAir tempDewpointWater temp
2018-Apr-22 04:30N 34°29' E 135°11'612.4
2018-Apr-22 04:00N 34°33' E 135°17'612.2
2018-Apr-22 03:30N 34°36' E 135°23'3 6.1
2018-Apr-22 03:00N 34°34' E 135°26'0 0.0
2018-Apr-22 02:30N 34°34' E 135°26'0 0.0
2018-Apr-22 02:00N 34°34' E 135°26'0 0.0
2018-Apr-22 01:30N 34°34' E 135°26'0 0.0
2018-Apr-22 01:00N 34°34' E 135°26'0 0.0
2018-Apr-22 00:30N 34°34' E 135°26'1 2.0
2018-Apr-22 00:00N 34°35' E 135°25'510.2
2018-Apr-21 23:30N 34°36' E 135°19'612.1
2018-Apr-21 23:00N 34°35' E 135°12'612.4
2018-Apr-21 22:31N 34°35' E 135°04'713.1
2018-Apr-21 22:00N 34°36' E 134°57'713.6
2018-Apr-21 21:31N 34°33' E 134°49'612.1
2018-Apr-21 21:01N 34°31' E 134°42'612.3
2018-Apr-21 20:30N 34°29' E 134°35'612.2
2018-Apr-21 20:00N 34°26' E 134°28'612.2
2018-Apr-21 19:30N 34°24' E 134°22'612.6
2018-Apr-21 19:00N 34°24' E 134°14'612.5
2018-Apr-21 18:29N 34°26' E 134°07'7111.4
2018-Apr-21 12:15N 34°01' E 132°46'312.2
2018-Apr-21 11:59N 33°58' E 132°44'611.1
2018-Apr-21 11:29N 33°55' E 132°39'1011.6
2018-Apr-21 10:36N 33°51' E 132°27'211.6
2018-Apr-21 10:25N 33°50' E 132°25'711.5
2018-Apr-21 09:50N 33°50' E 132°17'411.8
2018-Apr-21 09:31N 33°49' E 132°12'611.1
2018-Apr-21 09:01N 33°47' E 132°06'611.1
2018-Apr-21 08:30N 33°45' E 131°60'611.5
2018-Apr-21 08:00N 33°46' E 131°53'611.8
2018-Apr-21 07:30N 33°47' E 131°46'612.3
2018-Apr-21 07:00N 33°48' E 131°39'612.0
2018-Apr-21 06:30N 33°49' E 131°32'612.0
2018-Apr-21 06:01N 33°51' E 131°25'612.0
2018-Apr-21 05:30N 33°52' E 131°18'510.6
2018-Apr-21 05:00N 33°54' E 131°12'2 4.0
2018-Apr-21 04:31N 33°56' E 131°11'0 0.0
2018-Apr-21 04:00N 33°56' E 131°11'0 0.0
2018-Apr-21 03:30N 33°56' E 131°11'0 0.0
2018-Apr-21 03:00N 33°56' E 131°11'0 0.0
2018-Apr-21 02:30N 33°56' E 131°11'0 0.0
2018-Apr-21 02:00N 33°56' E 131°11'0 0.0
2018-Apr-21 01:30N 33°56' E 131°11'0 0.0
2018-Apr-21 01:00N 33°56' E 131°11'0 0.2
2018-Apr-21 00:31N 33°56' E 131°11'2 4.4
2018-Apr-21 00:01N 33°54' E 131°12'0 0.7
2018-Apr-20 23:29N 33°54' E 131°11'0 0.0
2018-Apr-20 22:59N 33°54' E 131°11'0 0.0
2018-Apr-20 22:29N 33°54' E 131°11'0 0.0
2018-Apr-20 21:59N 33°54' E 131°11'3 6.4
2018-Apr-20 21:30N 33°52' E 131°14'612.3
2018-Apr-20 21:00N 33°51' E 131°22'612.4
2018-Apr-20 20:30N 33°49' E 131°29'612.3
2018-Apr-20 20:00N 33°48' E 131°36'612.3
2018-Apr-20 19:31N 33°47' E 131°43'612.2
2018-Apr-20 19:01N 33°46' E 131°51'812.3
2018-Apr-20 18:23N 33°45' E 131°60'512.5
2018-Apr-20 17:59N 33°47' E 132°06'2312.2
2018-Apr-20 16:08N 33°53' E 132°32'411.9
2018-Apr-20 15:47N 33°54' E 132°37'310.8
2018-Apr-20 15:30N 33°56' E 132°40'5 9.9
2018-Apr-20 15:00N 33°59' E 132°44'7910.4
2018-Apr-20 07:27N 34°24' E 134°14'511.3
2018-Apr-20 07:00N 34°25' E 134°20'612.2
2018-Apr-20 06:30N 34°27' E 134°27'612.2
2018-Apr-20 06:01N 34°29' E 134°34'612.0
2018-Apr-20 05:30N 34°32' E 134°41'612.2
2018-Apr-20 05:00N 34°34' E 134°48'612.3
2018-Apr-20 04:30N 34°36' E 134°55'612.0
2018-Apr-20 04:00N 34°37' E 135°02'611.6
2018-Apr-20 03:30N 34°34' E 135°08'611.2
2018-Apr-20 03:01N 34°31' E 135°14'611.7
2018-Apr-20 02:31N 34°35' E 135°20'5 9.3
2018-Apr-20 02:01N 34°35' E 135°25'1 1.4
2018-Apr-20 01:28N 34°34' E 135°26'0 0.0
2018-Apr-20 00:55N 34°34' E 135°26'0 0.0
2018-Apr-20 00:28N 34°34' E 135°26'0 0.0
2018-Apr-19 23:52N 34°34' E 135°26'0 0.0
2018-Apr-19 23:28N 34°34' E 135°26'0 0.0
2018-Apr-19 22:58N 34°34' E 135°26'1 2.2
2018-Apr-19 22:30N 34°35' E 135°25'2 4.0
2018-Apr-19 22:00N 34°36' E 135°23'0 0.0
2018-Apr-19 21:30N 34°36' E 135°23'0 0.0
2018-Apr-19 21:00N 34°36' E 135°23'0 0.0
2018-Apr-19 20:30N 34°36' E 135°23'0 0.0
2018-Apr-19 20:00N 34°36' E 135°23'0 0.0
2018-Apr-19 19:30N 34°36' E 135°23'0 0.0
2018-Apr-19 19:00N 34°36' E 135°23'0 0.0
2018-Apr-19 18:30N 34°36' E 135°23'0 0.0
2018-Apr-19 18:00N 34°36' E 135°23'0 0.0
2018-Apr-19 17:30N 34°35' E 135°23'0 0.0
2018-Apr-19 17:00N 34°35' E 135°23'0 0.0
2018-Apr-19 16:30N 34°35' E 135°23'0 0.0
2018-Apr-19 16:00N 34°35' E 135°23'0 0.0
2018-Apr-19 15:30N 34°35' E 135°23'0 0.0
2018-Apr-19 15:00N 34°35' E 135°23'0 0.0
2018-Apr-19 14:30N 34°35' E 135°23'0 0.0
2018-Apr-19 14:00N 34°35' E 135°23'0 0.0
2018-Apr-19 13:30N 34°35' E 135°23'0 0.0
2018-Apr-19 13:00N 34°35' E 135°23'0 0.1
2018-Apr-19 12:30N 34°35' E 135°23'510.0
2018-Apr-19 12:00N 34°32' E 135°18'611.7
2018-Apr-19 11:30N 34°29' E 135°13'611.7
2018-Apr-19 11:00N 34°25' E 135°08'612.7
2018-Apr-19 10:30N 34°20' E 135°02'612.1
2018-Apr-19 10:00N 34°14' E 134°60'510.8
2018-Apr-19 09:30N 34°09' E 135°00'612.6
2018-Apr-19 09:00N 34°03' E 135°01'612.4
2018-Apr-19 08:30N 33°56' E 135°02'16310.6
2018-Apr-18 17:07N 34°31' E 138°15'2912.1
2018-Apr-18 14:44N 34°35' E 138°49'411.8
2018-Apr-18 14:22N 34°36' E 138°54'411.4
2018-Apr-18 14:00N 34°38' E 138°59'611.4
2018-Apr-18 13:26N 34°43' E 139°04'512.4
2018-Apr-18 13:01N 34°47' E 139°08'1712.0
2018-Apr-18 11:35N 34°58' E 139°24'111.3
2018-Apr-18 11:27N 34°59' E 139°25'511.4
2018-Apr-18 10:59N 35°02' E 139°30'612.1
2018-Apr-18 10:30N 35°05' E 139°36'612.8
2018-Apr-18 10:00N 35°09' E 139°43'612.1
2018-Apr-18 09:30N 35°14' E 139°46'611.4
2018-Apr-18 09:00N 35°19' E 139°43'611.4
2018-Apr-18 08:30N 35°25' E 139°44'612.2
2018-Apr-18 08:00N 35°28' E 139°50'712.1
2018-Apr-18 07:24N 35°32' E 139°58'410.9
2018-Apr-18 07:00N 35°34' E 140°02'3 5.7
2018-Apr-18 06:31N 35°35' E 139°59'3 1.8
2018-Apr-18 04:56N 35°36' E 139°55'4 8.0
2018-Apr-18 04:29N 35°35' E 139°60'3 6.5
2018-Apr-18 04:00N 35°34' E 140°03'2 3.8
2018-Apr-18 03:30N 35°33' E 140°05'0 0.0
2018-Apr-18 00:16N 35°33' E 140°05'0 0.0
2018-Apr-17 23:54N 35°33' E 140°05'1 2.2
2018-Apr-17 23:30N 35°33' E 140°05'0 0.2
2018-Apr-17 23:00N 35°33' E 140°05'0 0.0
2018-Apr-17 22:29N 35°33' E 140°05'0 0.0
2018-Apr-17 21:59N 35°33' E 140°05'0 0.0
2018-Apr-17 21:29N 35°33' E 140°05'0 0.0
2018-Apr-17 21:00N 35°33' E 140°05'0 0.0
2018-Apr-17 20:30N 35°33' E 140°05'0 0.0
2018-Apr-17 20:00N 35°33' E 140°05'0 0.0
2018-Apr-17 19:30N 35°33' E 140°05'0 0.0
2018-Apr-17 18:59N 35°33' E 140°05'0 0.0
2018-Apr-17 18:29N 35°33' E 140°05'0 0.0
2018-Apr-17 17:59N 35°33' E 140°05'0 0.0
2018-Apr-17 17:29N 35°33' E 140°05'0 0.0
2018-Apr-17 16:59N 35°33' E 140°05'0 0.0
2018-Apr-17 16:29N 35°33' E 140°05'0 0.0
2018-Apr-17 15:59N 35°33' E 140°05'0 0.0
2018-Apr-17 15:29N 35°33' E 140°05'0 0.0
2018-Apr-17 14:59N 35°33' E 140°05'0 0.0
2018-Apr-17 14:29N 35°33' E 140°05'0 0.0
2018-Apr-17 13:59N 35°33' E 140°05'0 0.0
2018-Apr-17 13:29N 35°33' E 140°05'0 0.0
2018-Apr-17 12:59N 35°33' E 140°05'2 4.7
2018-Apr-17 12:30N 35°33' E 140°02'611.9
2018-Apr-17 12:00N 35°31' E 139°55'611.6
2018-Apr-17 11:30N 35°27' E 139°50'611.7
2018-Apr-17 11:00N 35°23' E 139°46'510.4
2018-Apr-17 10:30N 35°17' E 139°45'611.3
2018-Apr-17 10:00N 35°12' E 139°47'611.7
2018-Apr-17 09:30N 35°06' E 139°45'611.7
2018-Apr-17 09:00N 35°02' E 139°39'612.4
2018-Apr-17 08:30N 34°58' E 139°33'2711.8
2018-Apr-17 06:14N 34°41' E 139°09'310.7
2018-Apr-17 05:58N 34°39' E 139°05'510.4
2018-Apr-17 05:28N 34°37' E 138°60'810.9
2018-Apr-17 04:44N 34°34' E 138°51'19110.6
2018-Apr-16 10:45N 33°48' E 135°07'412.6
2018-Apr-16 10:25N 33°51' E 135°04'612.0
2018-Apr-16 09:57N 33°57' E 135°01'512.5
2018-Apr-16 09:30N 34°02' E 135°01'612.3
2018-Apr-16 09:00N 34°08' E 134°60'713.3
2018-Apr-16 08:30N 34°15' E 134°59'612.2
2018-Apr-16 08:00N 34°21' E 135°00'612.5
2018-Apr-16 07:30N 34°25' E 135°05'713.2
2018-Apr-16 07:00N 34°29' E 135°12'612.4
2018-Apr-16 06:30N 34°33' E 135°18'612.0
2018-Apr-16 06:01N 34°36' E 135°24'3 5.4
2018-Apr-16 05:30N 34°34' E 135°26'0 0.0
2018-Apr-16 05:00N 34°34' E 135°26'0 0.0
2018-Apr-16 04:30N 34°34' E 135°26'0 0.0
2018-Apr-16 04:00N 34°34' E 135°26'0 0.0
2018-Apr-16 03:30N 34°34' E 135°26'0 0.0
2018-Apr-16 03:00N 34°34' E 135°26'0 0.0
2018-Apr-16 02:30N 34°34' E 135°26'0 0.0
2018-Apr-16 02:00N 34°34' E 135°26'0 0.3
2018-Apr-16 01:31N 34°34' E 135°26'4 8.2
2018-Apr-16 01:00N 34°36' E 135°21'611.4
2018-Apr-16 00:31N 34°36' E 135°14'611.4
2018-Apr-16 00:00N 34°35' E 135°07'5 9.8
2018-Apr-15 23:30N 34°37' E 135°02'4 8.2
2018-Apr-15 23:00N 34°36' E 134°57'4 8.8
2018-Apr-15 22:30N 34°34' E 134°52'510.3
2018-Apr-15 22:01N 34°32' E 134°46'611.3
2018-Apr-15 21:30N 34°30' E 134°40'611.6
2018-Apr-15 21:00N 34°28' E 134°33'611.6
2018-Apr-15 20:28N 34°26' E 134°26'611.9
2018-Apr-15 19:58N 34°24' E 134°19'612.2
2018-Apr-15 19:29N 34°24' E 134°12'7611.2
2018-Apr-15 12:39N 33°60' E 132°45'213.8
2018-Apr-15 12:30N 33°58' E 132°44'813.4
2018-Apr-15 11:55N 33°54' E 132°36'1112.9
2018-Apr-15 11:03N 33°50' E 132°23'111.8
2018-Apr-15 10:59N 33°50' E 132°22'813.0
2018-Apr-15 10:23N 33°49' E 132°13'712.7
2018-Apr-15 09:49N 33°46' E 132°05'411.9
2018-Apr-15 09:28N 33°45' E 132°00'911.7
2018-Apr-15 08:40N 33°46' E 131°49'211.6
2018-Apr-15 08:30N 33°47' E 131°47'611.5
2018-Apr-15 08:00N 33°48' E 131°40'611.6
2018-Apr-15 07:30N 33°49' E 131°33'611.9
2018-Apr-15 07:00N 33°50' E 131°26'611.9
2018-Apr-15 06:30N 33°51' E 131°19'611.6
2018-Apr-15 06:01N 33°53' E 131°12'3 6.6
2018-Apr-15 05:31N 33°56' E 131°11'0 0.0
2018-Apr-15 05:00N 33°56' E 131°11'0 0.0
2018-Apr-15 04:27N 33°56' E 131°11'0 0.0
2018-Apr-15 04:00N 33°56' E 131°11'0 0.0
2018-Apr-15 03:30N 33°56' E 131°11'0 0.0
2018-Apr-15 02:57N 33°56' E 131°11'0 0.0
2018-Apr-15 02:30N 33°56' E 131°11'0 0.0
2018-Apr-15 01:57N 33°56' E 131°11'0 0.0
2018-Apr-15 01:27N 33°56' E 131°11'0 0.0
2018-Apr-15 00:57N 33°56' E 131°11'0 0.0
2018-Apr-15 00:29N 33°56' E 131°11'2 3.7
2018-Apr-15 00:01N 33°55' E 131°12'1 1.7
2018-Apr-14 23:30N 33°54' E 131°11'0 0.1
2018-Apr-14 22:59N 33°54' E 131°11'0 0.0
2018-Apr-14 22:29N 33°54' E 131°11'0 0.0
2018-Apr-14 21:59N 33°54' E 131°11'0 0.0
2018-Apr-14 21:29N 33°54' E 131°11'0 0.1
2018-Apr-14 20:59N 33°54' E 131°11'0 0.0
2018-Apr-14 20:29N 33°54' E 131°11'0 0.0
2018-Apr-14 19:59N 33°54' E 131°11'0 0.0
2018-Apr-14 19:29N 33°54' E 131°11'0 0.1
2018-Apr-14 18:59N 33°54' E 131°11'0 0.0
2018-Apr-14 18:29N 33°54' E 131°11'0 0.0
2018-Apr-14 17:59N 33°54' E 131°11'0 0.0
2018-Apr-14 17:29N 33°54' E 131°11'0 0.0
2018-Apr-14 16:59N 33°54' E 131°11'0 0.0
2018-Apr-14 16:29N 33°54' E 131°11'0 0.0
2018-Apr-14 15:59N 33°54' E 131°11'0 0.0
2018-Apr-14 15:26N 33°54' E 131°11'0 0.0
2018-Apr-14 14:56N 33°54' E 131°11'0 0.0
2018-Apr-14 14:29N 33°54' E 131°11'0 0.0
2018-Apr-14 13:56N 33°54' E 131°11'0 0.0
2018-Apr-14 13:29N 33°54' E 131°11'0 0.0
2018-Apr-14 12:59N 33°54' E 131°11'0 0.0
2018-Apr-14 12:29N 33°54' E 131°11'0 0.0
2018-Apr-14 11:59N 33°54' E 131°11'0 0.1
2018-Apr-14 11:29N 33°54' E 131°11'0 0.0
2018-Apr-14 10:59N 33°54' E 131°11'0 0.1
2018-Apr-14 10:29N 33°54' E 131°11'0 0.0
2018-Apr-14 09:59N 33°54' E 131°11'0 0.1
2018-Apr-14 09:29N 33°54' E 131°11'0 0.1
2018-Apr-14 08:59N 33°54' E 131°11'0 0.0
2018-Apr-14 08:29N 33°54' E 131°11'0 0.0
2018-Apr-14 07:59N 33°54' E 131°11'0 0.0
2018-Apr-14 07:29N 33°54' E 131°11'0 0.0
2018-Apr-14 06:59N 33°54' E 131°11'0 0.0
2018-Apr-14 06:26N 33°54' E 131°11'0 0.0
2018-Apr-14 05:59N 33°54' E 131°11'0 0.0
2018-Apr-14 05:29N 33°54' E 131°11'0 0.0
2018-Apr-14 04:59N 33°54' E 131°11'0 0.0
2018-Apr-14 04:29N 33°54' E 131°11'0 0.0
2018-Apr-14 03:59N 33°54' E 131°11'0 0.0
2018-Apr-14 03:29N 33°54' E 131°11'0 0.0
2018-Apr-14 02:59N 33°54' E 131°11'0 0.0
2018-Apr-14 02:29N 33°54' E 131°11'0 0.0
2018-Apr-14 01:59N 33°54' E 131°11'0 0.1
2018-Apr-14 01:29N 33°54' E 131°11'0 0.1
2018-Apr-14 00:59N 33°54' E 131°11'0 0.0
2018-Apr-14 00:29N 33°54' E 131°11'0 0.0
2018-Apr-13 23:59N 33°54' E 131°11'0 0.0
2018-Apr-13 23:29N 33°54' E 131°11'0 0.1
2018-Apr-13 22:59N 33°54' E 131°11'0 0.1
2018-Apr-13 22:29N 33°54' E 131°11'0 0.1
2018-Apr-13 22:01N 33°54' E 131°11'4 8.4
2018-Apr-13 21:30N 33°52' E 131°15'613.0
2018-Apr-13 21:00N 33°51' E 131°22'713.3
2018-Apr-13 20:29N 33°50' E 131°31'613.2
2018-Apr-13 20:00N 33°48' E 131°38'713.3
2018-Apr-13 19:28N 33°47' E 131°47'1313.0
2018-Apr-13 18:28N 33°46' E 132°02'2712.8
2018-Apr-13 16:22N 33°53' E 132°33'513.5
2018-Apr-13 16:00N 33°55' E 132°39'713.9
2018-Apr-13 15:30N 34°00' E 132°44'7812.0
2018-Apr-13 08:59N 34°24' E 134°15'612.9
2018-Apr-13 08:30N 34°25' E 134°22'612.5
2018-Apr-13 08:00N 34°28' E 134°29'612.3
2018-Apr-13 07:30N 34°30' E 134°36'612.1
2018-Apr-13 07:00N 34°32' E 134°43'612.0
2018-Apr-13 06:30N 34°34' E 134°49'611.6
2018-Apr-13 06:00N 34°37' E 134°56'510.0
2018-Apr-13 05:30N 34°37' E 135°02'510.2
2018-Apr-13 05:00N 34°36' E 135°08'612.4
2018-Apr-13 04:30N 34°36' E 135°16'3 5.2
2018-Apr-13 03:59N 34°35' E 135°19'0 0.0
2018-Apr-13 03:29N 34°35' E 135°19'0 0.1
2018-Apr-13 02:59N 34°35' E 135°19'4 7.8
2018-Apr-13 02:30N 34°36' E 135°23'3 5.2
2018-Apr-13 01:58N 34°34' E 135°26'0 0.0
2018-Apr-13 01:28N 34°34' E 135°26'0 0.0
2018-Apr-13 00:58N 34°34' E 135°26'0 0.0
2018-Apr-13 00:28N 34°34' E 135°26'0 0.0
2018-Apr-12 23:55N 34°34' E 135°26'0 0.0
2018-Apr-12 23:28N 34°34' E 135°26'0 0.1
2018-Apr-12 23:00N 34°34' E 135°26'3 6.3
2018-Apr-12 22:30N 34°36' E 135°23'2 3.2
2018-Apr-12 22:00N 34°35' E 135°22'5 9.8
2018-Apr-12 21:30N 34°35' E 135°16'510.0
2018-Apr-12 21:00N 34°35' E 135°10'510.4
2018-Apr-12 20:30N 34°36' E 135°03'4 8.6
2018-Apr-12 20:00N 34°37' E 134°58'510.7
2018-Apr-12 19:30N 34°34' E 134°52'611.6
2018-Apr-12 19:00N 34°32' E 134°46'611.4
2018-Apr-12 18:30N 34°30' E 134°40'611.5
2018-Apr-12 18:00N 34°28' E 134°33'611.5
2018-Apr-12 17:30N 34°26' E 134°27'611.7
2018-Apr-12 17:00N 34°24' E 134°20'612.3
2018-Apr-12 16:29N 34°24' E 134°12'7511.6
2018-Apr-12 10:01N 34°01' E 132°46'113.1
2018-Apr-12 09:58N 34°00' E 132°45'613.0
2018-Apr-12 09:29N 33°56' E 132°40'2012.4
2018-Apr-12 07:51N 33°50' E 132°17'1011.8
2018-Apr-12 06:58N 33°46' E 132°05'1811.3
2018-Apr-12 05:23N 33°47' E 131°43'512.1
2018-Apr-12 04:59N 33°48' E 131°38'  
Track history (hours):
 
Tides and Currents Weather Stations Pressure Air Temp Water Temp Dewpoint Dewpoint Depression Visibility Wind Speed Wind Dir Waves Ship Positions

Shin Puropan Maru

Last reported at 2018-Apr-22 04:30 UTC. Time now 2018-Apr-22 04:40 UTC.
Position N 34°29' E 135°11'.

Length 66 m; draft 3.5 m.

Type: Ship (hazmat cat A). MMSI: 431100348.

Date/timePositionNaut miles runAvg speedWind from/ knotsBaromVisibWave heightAir tempDewpointWater temp
2018-Apr-22 04:30N 34°29' E 135°11'612.4
2018-Apr-22 04:00N 34°33' E 135°17'612.2
2018-Apr-22 03:30N 34°36' E 135°23'3 6.1
2018-Apr-22 03:00N 34°34' E 135°26'0 0.0
2018-Apr-22 02:30N 34°34' E 135°26'0 0.0
2018-Apr-22 02:00N 34°34' E 135°26'0 0.0
2018-Apr-22 01:30N 34°34' E 135°26'0 0.0
2018-Apr-22 01:00N 34°34' E 135°26'0 0.0
2018-Apr-22 00:30N 34°34' E 135°26'1 2.0
2018-Apr-22 00:00N 34°35' E 135°25'510.2
2018-Apr-21 23:30N 34°36' E 135°19'612.1
2018-Apr-21 23:00N 34°35' E 135°12'612.4
2018-Apr-21 22:31N 34°35' E 135°04'713.1
2018-Apr-21 22:00N 34°36' E 134°57'713.6
2018-Apr-21 21:31N 34°33' E 134°49'612.1
2018-Apr-21 21:01N 34°31' E 134°42'612.3
2018-Apr-21 20:30N 34°29' E 134°35'612.2
2018-Apr-21 20:00N 34°26' E 134°28'612.2
2018-Apr-21 19:30N 34°24' E 134°22'612.6
2018-Apr-21 19:00N 34°24' E 134°14'612.5
2018-Apr-21 18:29N 34°26' E 134°07'7111.4
2018-Apr-21 12:15N 34°01' E 132°46'312.2
2018-Apr-21 11:59N 33°58' E 132°44'611.1
2018-Apr-21 11:29N 33°55' E 132°39'1011.6
2018-Apr-21 10:36N 33°51' E 132°27'211.6
2018-Apr-21 10:25N 33°50' E 132°25'711.5
2018-Apr-21 09:50N 33°50' E 132°17'411.8
2018-Apr-21 09:31N 33°49' E 132°12'611.1
2018-Apr-21 09:01N 33°47' E 132°06'611.1
2018-Apr-21 08:30N 33°45' E 131°60'611.5
2018-Apr-21 08:00N 33°46' E 131°53'611.8
2018-Apr-21 07:30N 33°47' E 131°46'612.3
2018-Apr-21 07:00N 33°48' E 131°39'612.0
2018-Apr-21 06:30N 33°49' E 131°32'612.0
2018-Apr-21 06:01N 33°51' E 131°25'612.0
2018-Apr-21 05:30N 33°52' E 131°18'510.6
2018-Apr-21 05:00N 33°54' E 131°12'2 4.0
2018-Apr-21 04:31N 33°56' E 131°11'0 0.0
2018-Apr-21 04:00N 33°56' E 131°11'0 0.0
2018-Apr-21 03:30N 33°56' E 131°11'0 0.0
2018-Apr-21 03:00N 33°56' E 131°11'0 0.0
2018-Apr-21 02:30N 33°56' E 131°11'0 0.0
2018-Apr-21 02:00N 33°56' E 131°11'0 0.0
2018-Apr-21 01:30N 33°56' E 131°11'0 0.0
2018-Apr-21 01:00N 33°56' E 131°11'0 0.2
2018-Apr-21 00:31N 33°56' E 131°11'2 4.4
2018-Apr-21 00:01N 33°54' E 131°12'0 0.7
2018-Apr-20 23:29N 33°54' E 131°11'0 0.0
2018-Apr-20 22:59N 33°54' E 131°11'0 0.0
2018-Apr-20 22:29N 33°54' E 131°11'0 0.0
2018-Apr-20 21:59N 33°54' E 131°11'3 6.4
2018-Apr-20 21:30N 33°52' E 131°14'612.3
2018-Apr-20 21:00N 33°51' E 131°22'612.4
2018-Apr-20 20:30N 33°49' E 131°29'612.3
2018-Apr-20 20:00N 33°48' E 131°36'612.3
2018-Apr-20 19:31N 33°47' E 131°43'612.2
2018-Apr-20 19:01N 33°46' E 131°51'812.3
2018-Apr-20 18:23N 33°45' E 131°60'512.5
2018-Apr-20 17:59N 33°47' E 132°06'2312.2
2018-Apr-20 16:08N 33°53' E 132°32'411.9
2018-Apr-20 15:47N 33°54' E 132°37'310.8
2018-Apr-20 15:30N 33°56' E 132°40'5 9.9
2018-Apr-20 15:00N 33°59' E 132°44'7910.4
2018-Apr-20 07:27N 34°24' E 134°14'511.3
2018-Apr-20 07:00N 34°25' E 134°20'612.2
2018-Apr-20 06:30N 34°27' E 134°27'612.2
2018-Apr-20 06:01N 34°29' E 134°34'612.0
2018-Apr-20 05:30N 34°32' E 134°41'612.2
2018-Apr-20 05:00N 34°34' E 134°48'612.3
2018-Apr-20 04:30N 34°36' E 134°55'612.0
2018-Apr-20 04:00N 34°37' E 135°02'611.6
2018-Apr-20 03:30N 34°34' E 135°08'611.2
2018-Apr-20 03:01N 34°31' E 135°14'611.7
2018-Apr-20 02:31N 34°35' E 135°20'5 9.3
2018-Apr-20 02:01N 34°35' E 135°25'1 1.4
2018-Apr-20 01:28N 34°34' E 135°26'0 0.0
2018-Apr-20 00:55N 34°34' E 135°26'0 0.0
2018-Apr-20 00:28N 34°34' E 135°26'0 0.0
2018-Apr-19 23:52N 34°34' E 135°26'0 0.0
2018-Apr-19 23:28N 34°34' E 135°26'0 0.0
2018-Apr-19 22:58N 34°34' E 135°26'1 2.2
2018-Apr-19 22:30N 34°35' E 135°25'2 4.0
2018-Apr-19 22:00N 34°36' E 135°23'0 0.0
2018-Apr-19 21:30N 34°36' E 135°23'0 0.0
2018-Apr-19 21:00N 34°36' E 135°23'0 0.0
2018-Apr-19 20:30N 34°36' E 135°23'0 0.0
2018-Apr-19 20:00N 34°36' E 135°23'0 0.0
2018-Apr-19 19:30N 34°36' E 135°23'0 0.0
2018-Apr-19 19:00N 34°36' E 135°23'0 0.0
2018-Apr-19 18:30N 34°36' E 135°23'0 0.0
2018-Apr-19 18:00N 34°36' E 135°23'0 0.0
2018-Apr-19 17:30N 34°35' E 135°23'0 0.0
2018-Apr-19 17:00N 34°35' E 135°23'0 0.0
2018-Apr-19 16:30N 34°35' E 135°23'0 0.0
2018-Apr-19 16:00N 34°35' E 135°23'0 0.0
2018-Apr-19 15:30N 34°35' E 135°23'0 0.0
2018-Apr-19 15:00N 34°35' E 135°23'0 0.0
2018-Apr-19 14:30N 34°35' E 135°23'0 0.0
2018-Apr-19 14:00N 34°35' E 135°23'0 0.0
2018-Apr-19 13:30N 34°35' E 135°23'0 0.0
2018-Apr-19 13:00N 34°35' E 135°23'0 0.1
2018-Apr-19 12:30N 34°35' E 135°23'510.0
2018-Apr-19 12:00N 34°32' E 135°18'611.7
2018-Apr-19 11:30N 34°29' E 135°13'611.7
2018-Apr-19 11:00N 34°25' E 135°08'612.7
2018-Apr-19 10:30N 34°20' E 135°02'612.1
2018-Apr-19 10:00N 34°14' E 134°60'510.8
2018-Apr-19 09:30N 34°09' E 135°00'612.6
2018-Apr-19 09:00N 34°03' E 135°01'612.4
2018-Apr-19 08:30N 33°56' E 135°02'16310.6
2018-Apr-18 17:07N 34°31' E 138°15'2912.1
2018-Apr-18 14:44N 34°35' E 138°49'411.8
2018-Apr-18 14:22N 34°36' E 138°54'411.4
2018-Apr-18 14:00N 34°38' E 138°59'611.4
2018-Apr-18 13:26N 34°43' E 139°04'512.4
2018-Apr-18 13:01N 34°47' E 139°08'1712.0
2018-Apr-18 11:35N 34°58' E 139°24'111.3
2018-Apr-18 11:27N 34°59' E 139°25'511.4
2018-Apr-18 10:59N 35°02' E 139°30'612.1
2018-Apr-18 10:30N 35°05' E 139°36'612.8
2018-Apr-18 10:00N 35°09' E 139°43'612.1
2018-Apr-18 09:30N 35°14' E 139°46'611.4
2018-Apr-18 09:00N 35°19' E 139°43'611.4
2018-Apr-18 08:30N 35°25' E 139°44'612.2
2018-Apr-18 08:00N 35°28' E 139°50'712.1
2018-Apr-18 07:24N 35°32' E 139°58'410.9
2018-Apr-18 07:00N 35°34' E 140°02'3 5.7
2018-Apr-18 06:31N 35°35' E 139°59'3 1.8
2018-Apr-18 04:56N 35°36' E 139°55'4 8.0
2018-Apr-18 04:29N 35°35' E 139°60'3 6.5
2018-Apr-18 04:00N 35°34' E 140°03'2 3.8
2018-Apr-18 03:30N 35°33' E 140°05'0 0.0
2018-Apr-18 00:16N 35°33' E 140°05'0 0.0
2018-Apr-17 23:54N 35°33' E 140°05'1 2.2
2018-Apr-17 23:30N 35°33' E 140°05'0 0.2
2018-Apr-17 23:00N 35°33' E 140°05'0 0.0
2018-Apr-17 22:29N 35°33' E 140°05'0 0.0
2018-Apr-17 21:59N 35°33' E 140°05'0 0.0
2018-Apr-17 21:29N 35°33' E 140°05'0 0.0
2018-Apr-17 21:00N 35°33' E 140°05'0 0.0
2018-Apr-17 20:30N 35°33' E 140°05'0 0.0
2018-Apr-17 20:00N 35°33' E 140°05'0 0.0
2018-Apr-17 19:30N 35°33' E 140°05'0 0.0
2018-Apr-17 18:59N 35°33' E 140°05'0 0.0
2018-Apr-17 18:29N 35°33' E 140°05'0 0.0
2018-Apr-17 17:59N 35°33' E 140°05'0 0.0
2018-Apr-17 17:29N 35°33' E 140°05'0 0.0
2018-Apr-17 16:59N 35°33' E 140°05'0 0.0
2018-Apr-17 16:29N 35°33' E 140°05'0 0.0
2018-Apr-17 15:59N 35°33' E 140°05'0 0.0
2018-Apr-17 15:29N 35°33' E 140°05'0 0.0
2018-Apr-17 14:59N 35°33' E 140°05'0 0.0
2018-Apr-17 14:29N 35°33' E 140°05'0 0.0
2018-Apr-17 13:59N 35°33' E 140°05'0 0.0
2018-Apr-17 13:29N 35°33' E 140°05'0 0.0
2018-Apr-17 12:59N 35°33' E 140°05'2 4.7
2018-Apr-17 12:30N 35°33' E 140°02'611.9
2018-Apr-17 12:00N 35°31' E 139°55'611.6
2018-Apr-17 11:30N 35°27' E 139°50'611.7
2018-Apr-17 11:00N 35°23' E 139°46'510.4
2018-Apr-17 10:30N 35°17' E 139°45'611.3
2018-Apr-17 10:00N 35°12' E 139°47'611.7
2018-Apr-17 09:30N 35°06' E 139°45'611.7
2018-Apr-17 09:00N 35°02' E 139°39'612.4
2018-Apr-17 08:30N 34°58' E 139°33'2711.8
2018-Apr-17 06:14N 34°41' E 139°09'310.7
2018-Apr-17 05:58N 34°39' E 139°05'510.4
2018-Apr-17 05:28N 34°37' E 138°60'810.9
2018-Apr-17 04:44N 34°34' E 138°51'19110.6
2018-Apr-16 10:45N 33°48' E 135°07'412.6
2018-Apr-16 10:25N 33°51' E 135°04'612.0
2018-Apr-16 09:57N 33°57' E 135°01'512.5
2018-Apr-16 09:30N 34°02' E 135°01'612.3
2018-Apr-16 09:00N 34°08' E 134°60'713.3
2018-Apr-16 08:30N 34°15' E 134°59'612.2
2018-Apr-16 08:00N 34°21' E 135°00'612.5
2018-Apr-16 07:30N 34°25' E 135°05'713.2
2018-Apr-16 07:00N 34°29' E 135°12'612.4
2018-Apr-16 06:30N 34°33' E 135°18'612.0
2018-Apr-16 06:01N 34°36' E 135°24'3 5.4
2018-Apr-16 05:30N 34°34' E 135°26'0 0.0
2018-Apr-16 05:00N 34°34' E 135°26'0 0.0
2018-Apr-16 04:30N 34°34' E 135°26'0 0.0
2018-Apr-16 04:00N 34°34' E 135°26'0 0.0
2018-Apr-16 03:30N 34°34' E 135°26'0 0.0
2018-Apr-16 03:00N 34°34' E 135°26'0 0.0
2018-Apr-16 02:30N 34°34' E 135°26'0 0.0
2018-Apr-16 02:00N 34°34' E 135°26'0 0.3
2018-Apr-16 01:31N 34°34' E 135°26'4 8.2
2018-Apr-16 01:00N 34°36' E 135°21'611.4
2018-Apr-16 00:31N 34°36' E 135°14'611.4
2018-Apr-16 00:00N 34°35' E 135°07'5 9.8
2018-Apr-15 23:30N 34°37' E 135°02'4 8.2
2018-Apr-15 23:00N 34°36' E 134°57'4 8.8
2018-Apr-15 22:30N 34°34' E 134°52'510.3
2018-Apr-15 22:01N 34°32' E 134°46'611.3
2018-Apr-15 21:30N 34°30' E 134°40'611.6
2018-Apr-15 21:00N 34°28' E 134°33'611.6
2018-Apr-15 20:28N 34°26' E 134°26'611.9
2018-Apr-15 19:58N 34°24' E 134°19'612.2
2018-Apr-15 19:29N 34°24' E 134°12'7611.2
2018-Apr-15 12:39N 33°60' E 132°45'213.8
2018-Apr-15 12:30N 33°58' E 132°44'813.4
2018-Apr-15 11:55N 33°54' E 132°36'1112.9
2018-Apr-15 11:03N 33°50' E 132°23'111.8
2018-Apr-15 10:59N 33°50' E 132°22'813.0
2018-Apr-15 10:23N 33°49' E 132°13'712.7
2018-Apr-15 09:49N 33°46' E 132°05'411.9
2018-Apr-15 09:28N 33°45' E 132°00'911.7
2018-Apr-15 08:40N 33°46' E 131°49'211.6
2018-Apr-15 08:30N 33°47' E 131°47'611.5
2018-Apr-15 08:00N 33°48' E 131°40'611.6
2018-Apr-15 07:30N 33°49' E 131°33'611.9
2018-Apr-15 07:00N 33°50' E 131°26'611.9
2018-Apr-15 06:30N 33°51' E 131°19'611.6
2018-Apr-15 06:01N 33°53' E 131°12'3 6.6
2018-Apr-15 05:31N 33°56' E 131°11'0 0.0
2018-Apr-15 05:00N 33°56' E 131°11'0 0.0
2018-Apr-15 04:27N 33°56' E 131°11'0 0.0
2018-Apr-15 04:00N 33°56' E 131°11'0 0.0
2018-Apr-15 03:30N 33°56' E 131°11'0 0.0
2018-Apr-15 02:57N 33°56' E 131°11'0 0.0
2018-Apr-15 02:30N 33°56' E 131°11'0 0.0
2018-Apr-15 01:57N 33°56' E 131°11'0 0.0
2018-Apr-15 01:27N 33°56' E 131°11'0 0.0
2018-Apr-15 00:57N 33°56' E 131°11'0 0.0
2018-Apr-15 00:29N 33°56' E 131°11'2 3.7
2018-Apr-15 00:01N 33°55' E 131°12'1 1.7
2018-Apr-14 23:30N 33°54' E 131°11'0 0.1
2018-Apr-14 22:59N 33°54' E 131°11'0 0.0
2018-Apr-14 22:29N 33°54' E 131°11'0 0.0
2018-Apr-14 21:59N 33°54' E 131°11'0 0.0
2018-Apr-14 21:29N 33°54' E 131°11'0 0.1
2018-Apr-14 20:59N 33°54' E 131°11'0 0.0
2018-Apr-14 20:29N 33°54' E 131°11'0 0.0
2018-Apr-14 19:59N 33°54' E 131°11'0 0.0
2018-Apr-14 19:29N 33°54' E 131°11'0 0.1
2018-Apr-14 18:59N 33°54' E 131°11'0 0.0
2018-Apr-14 18:29N 33°54' E 131°11'0 0.0
2018-Apr-14 17:59N 33°54' E 131°11'0 0.0
2018-Apr-14 17:29N 33°54' E 131°11'0 0.0
2018-Apr-14 16:59N 33°54' E 131°11'0 0.0
2018-Apr-14 16:29N 33°54' E 131°11'0 0.0
2018-Apr-14 15:59N 33°54' E 131°11'0 0.0
2018-Apr-14 15:26N 33°54' E 131°11'0 0.0
2018-Apr-14 14:56N 33°54' E 131°11'0 0.0
2018-Apr-14 14:29N 33°54' E 131°11'0 0.0
2018-Apr-14 13:56N 33°54' E 131°11'0 0.0
2018-Apr-14 13:29N 33°54' E 131°11'0 0.0
2018-Apr-14 12:59N 33°54' E 131°11'0 0.0
2018-Apr-14 12:29N 33°54' E 131°11'0 0.0
2018-Apr-14 11:59N 33°54' E 131°11'0 0.1
2018-Apr-14 11:29N 33°54' E 131°11'0 0.0
2018-Apr-14 10:59N 33°54' E 131°11'0 0.1
2018-Apr-14 10:29N 33°54' E 131°11'0 0.0
2018-Apr-14 09:59N 33°54' E 131°11'0 0.1
2018-Apr-14 09:29N 33°54' E 131°11'0 0.1
2018-Apr-14 08:59N 33°54' E 131°11'0 0.0
2018-Apr-14 08:29N 33°54' E 131°11'0 0.0
2018-Apr-14 07:59N 33°54' E 131°11'0 0.0
2018-Apr-14 07:29N 33°54' E 131°11'0 0.0
2018-Apr-14 06:59N 33°54' E 131°11'0 0.0
2018-Apr-14 06:26N 33°54' E 131°11'0 0.0
2018-Apr-14 05:59N 33°54' E 131°11'0 0.0
2018-Apr-14 05:29N 33°54' E 131°11'0 0.0
2018-Apr-14 04:59N 33°54' E 131°11'0 0.0
2018-Apr-14 04:29N 33°54' E 131°11'0 0.0
2018-Apr-14 03:59N 33°54' E 131°11'0 0.0
2018-Apr-14 03:29N 33°54' E 131°11'0 0.0
2018-Apr-14 02:59N 33°54' E 131°11'0 0.0
2018-Apr-14 02:29N 33°54' E 131°11'0 0.0
2018-Apr-14 01:59N 33°54' E 131°11'0 0.1
2018-Apr-14 01:29N 33°54' E 131°11'0 0.1
2018-Apr-14 00:59N 33°54' E 131°11'0 0.0
2018-Apr-14 00:29N 33°54' E 131°11'0 0.0
2018-Apr-13 23:59N 33°54' E 131°11'0 0.0
2018-Apr-13 23:29N 33°54' E 131°11'0 0.1
2018-Apr-13 22:59N 33°54' E 131°11'0 0.1
2018-Apr-13 22:29N 33°54' E 131°11'0 0.1
2018-Apr-13 22:01N 33°54' E 131°11'4 8.4
2018-Apr-13 21:30N 33°52' E 131°15'613.0
2018-Apr-13 21:00N 33°51' E 131°22'713.3
2018-Apr-13 20:29N 33°50' E 131°31'613.2
2018-Apr-13 20:00N 33°48' E 131°38'713.3
2018-Apr-13 19:28N 33°47' E 131°47'1313.0
2018-Apr-13 18:28N 33°46' E 132°02'2712.8
2018-Apr-13 16:22N 33°53' E 132°33'513.5
2018-Apr-13 16:00N 33°55' E 132°39'713.9
2018-Apr-13 15:30N 34°00' E 132°44'7812.0
2018-Apr-13 08:59N 34°24' E 134°15'612.9
2018-Apr-13 08:30N 34°25' E 134°22'612.5
2018-Apr-13 08:00N 34°28' E 134°29'612.3
2018-Apr-13 07:30N 34°30' E 134°36'612.1
2018-Apr-13 07:00N 34°32' E 134°43'612.0
2018-Apr-13 06:30N 34°34' E 134°49'611.6
2018-Apr-13 06:00N 34°37' E 134°56'510.0
2018-Apr-13 05:30N 34°37' E 135°02'510.2
2018-Apr-13 05:00N 34°36' E 135°08'612.4
2018-Apr-13 04:30N 34°36' E 135°16'3 5.2
2018-Apr-13 03:59N 34°35' E 135°19'0 0.0
2018-Apr-13 03:29N 34°35' E 135°19'0 0.1
2018-Apr-13 02:59N 34°35' E 135°19'4 7.8
2018-Apr-13 02:30N 34°36' E 135°23'3 5.2
2018-Apr-13 01:58N 34°34' E 135°26'0 0.0
2018-Apr-13 01:28N 34°34' E 135°26'0 0.0
2018-Apr-13 00:58N 34°34' E 135°26'0 0.0
2018-Apr-13 00:28N 34°34' E 135°26'0 0.0
2018-Apr-12 23:55N 34°34' E 135°26'0 0.0
2018-Apr-12 23:28N 34°34' E 135°26'0 0.1
2018-Apr-12 23:00N 34°34' E 135°26'3 6.3
2018-Apr-12 22:30N 34°36' E 135°23'2 3.2
2018-Apr-12 22:00N 34°35' E 135°22'5 9.8
2018-Apr-12 21:30N 34°35' E 135°16'510.0
2018-Apr-12 21:00N 34°35' E 135°10'510.4
2018-Apr-12 20:30N 34°36' E 135°03'4 8.6
2018-Apr-12 20:00N 34°37' E 134°58'510.7
2018-Apr-12 19:30N 34°34' E 134°52'611.6
2018-Apr-12 19:00N 34°32' E 134°46'611.4
2018-Apr-12 18:30N 34°30' E 134°40'611.5
2018-Apr-12 18:00N 34°28' E 134°33'611.5
2018-Apr-12 17:30N 34°26' E 134°27'611.7
2018-Apr-12 17:00N 34°24' E 134°20'612.3
2018-Apr-12 16:29N 34°24' E 134°12'7511.6
2018-Apr-12 10:01N 34°01' E 132°46'113.1
2018-Apr-12 09:58N 34°00' E 132°45'613.0
2018-Apr-12 09:29N 33°56' E 132°40'2012.4
2018-Apr-12 07:51N 33°50' E 132°17'1011.8
2018-Apr-12 06:58N 33°46' E 132°05'1811.3
2018-Apr-12 05:23N 33°47' E 131°43'512.1
2018-Apr-12 04:59N 33°48' E 131°38'  

Dump ship's entire track history